Time;durP1;ratioP1;P1;durP2;ratioP2;P2;SDS_P1;SDS_P2;PMS_P1;PMS_P2;Temp;Humidity;BMP_temperature;BMP_pressure;BME280_temperature;BME280_humidity;BME280_pressure;Samples;Min_cycle;Max_cycle;Signal;HPM_P1;HPM_P2
2023/06/04 00:01:10;;;;;;;5.15;1.40;;;;;;;13.40;95.64;102046.09;5055492;28;20083;-50
2023/06/04 00:03:44;;;;;;;3.72;1.48;;;;;;;13.39;95.95;102049.69;5055407;28;20037;-51
2023/06/04 00:06:12;;;;;;;3.83;1.40;;;;;;;13.30;95.92;102040.47;5037312;28;20044;-51
2023/06/04 00:08:41;;;;;;;3.33;1.45;;;;;;;13.27;96.35;102040.66;5052285;28;20527;-52
2023/06/04 00:11:09;;;;;;;4.72;1.60;;;;;;;13.23;96.48;102039.13;5051296;28;20470;-50
2023/06/04 00:13:37;;;;;;;2.67;1.30;;;;;;;13.16;96.75;102040.44;5051948;28;20163;-51
2023/06/04 00:16:05;;;;;;;2.95;1.30;;;;;;;13.15;96.64;102038.72;5034427;28;20064;-49
2023/06/04 00:18:35;;;;;;;6.82;1.85;;;;;;;13.22;96.50;102041.88;5051709;28;20587;-50
2023/06/04 00:21:03;;;;;;;5.45;1.58;;;;;;;13.18;95.94;102039.41;5036970;28;20084;-47
2023/06/04 00:23:32;;;;;;;5.90;1.48;;;;;;;13.13;97.22;102030.88;5054163;28;20048;-50
2023/06/04 00:26:00;;;;;;;3.25;1.20;;;;;;;13.11;97.62;102034.56;5051190;28;20190;-52
2023/06/04 00:28:29;;;;;;;2.28;1.23;;;;;;;13.00;97.28;102035.16;5032304;28;20052;-51
2023/06/04 00:30:57;;;;;;;5.60;1.40;;;;;;;12.92;97.93;102030.28;5053294;28;20412;-53
2023/06/04 00:33:25;;;;;;;3.80;1.50;;;;;;;12.91;98.01;102033.91;5051790;28;20045;-49
2023/06/04 00:35:57;;;;;;;5.35;1.67;;;;;;;12.79;98.37;102035.44;5051379;28;20385;-51
2023/06/04 00:38:25;;;;;;;3.78;1.40;;;;;;;12.76;98.75;102040.00;5033347;28;20044;-53
2023/06/04 00:40:53;;;;;;;3.75;1.27;;;;;;;12.73;98.60;102042.84;5051538;28;20049;-53
2023/06/04 00:43:25;;;;;;;3.20;1.27;;;;;;;12.69;98.90;102042.13;5053206;28;20097;-52
2023/06/04 00:45:53;;;;;;;3.70;1.40;;;;;;;12.68;97.90;102051.00;5052168;28;20410;-51
2023/06/04 00:48:22;;;;;;;4.28;1.35;;;;;;;12.57;98.82;102045.44;5051148;28;20044;-51
2023/06/04 00:50:50;;;;;;;4.63;1.73;;;;;;;12.54;98.87;102050.91;5050878;28;20075;-51
2023/06/04 00:53:21;;;;;;;4.22;1.30;;;;;;;12.55;98.21;102048.19;5050798;28;20534;-50
2023/06/04 00:55:50;;;;;;;4.85;1.60;;;;;;;12.49;99.56;102049.38;5053094;28;20051;-52
2023/06/04 00:58:18;;;;;;;2.97;1.33;;;;;;;12.45;98.85;102044.34;5054601;28;20431;-51
2023/06/04 01:00:46;;;;;;;2.90;1.40;;;;;;;12.44;98.12;102048.75;5050411;28;20045;-51
2023/06/04 01:03:18;;;;;;;3.17;1.55;;;;;;;12.39;98.68;102040.22;5051354;28;20064;-52
2023/06/04 01:05:54;;;;;;;3.53;1.30;;;;;;;12.32;99.14;102045.00;5050698;28;20037;-52
2023/06/04 01:08:24;;;;;;;3.85;1.33;;;;;;;12.38;98.31;102042.97;5050936;28;20072;-53
2023/06/04 01:10:52;;;;;;;4.82;1.42;;;;;;;12.41;98.19;102034.91;5053568;28;20048;-50
2023/06/04 01:13:21;;;;;;;6.05;1.60;;;;;;;12.36;98.07;102036.94;5054260;28;20057;-52
2023/06/04 01:15:49;;;;;;;6.75;1.50;;;;;;;12.36;99.22;102039.56;5052618;28;20048;-51
2023/06/04 01:18:27;;;;;;;5.75;1.55;;;;;;;12.25;98.89;102040.13;5050666;28;20045;-48
2023/06/04 01:21:00;;;;;;;3.95;1.52;;;;;;;12.21;98.53;102047.34;5052562;28;20045;-52
2023/06/04 01:23:39;;;;;;;2.92;1.33;;;;;;;12.16;99.33;102044.09;5053557;28;20099;-50
2023/06/04 01:26:07;;;;;;;3.15;1.23;;;;;;;12.11;99.88;102043.50;5052568;28;20056;-50
2023/06/04 01:28:36;;;;;;;5.25;1.60;;;;;;;12.11;98.48;102039.06;5050216;28;20052;-51
2023/06/04 01:31:07;;;;;;;5.53;1.80;;;;;;;12.07;99.08;102041.97;5051083;28;20049;-51
2023/06/04 01:33:36;;;;;;;4.82;1.63;;;;;;;11.97;99.60;102045.09;5050886;28;20155;-48
2023/06/04 01:36:06;;;;;;;2.83;1.30;;;;;;;11.98;99.66;102038.00;5050237;28;20049;-51
2023/06/04 01:38:35;;;;;;;2.83;1.40;;;;;;;11.99;99.47;102042.34;5050414;28;20055;-50
2023/06/04 01:41:04;;;;;;;5.57;1.60;;;;;;;11.86;100.00;102034.19;5049842;28;20075;-52
2023/06/04 01:43:34;;;;;;;3.28;1.52;;;;;;;11.90;99.77;102038.41;5051264;28;20400;-47
2023/06/04 01:46:03;;;;;;;4.05;1.63;;;;;;;11.89;99.82;102041.97;5053627;28;20389;-51
2023/06/04 01:48:33;;;;;;;3.70;1.50;;;;;;;11.86;100.00;102033.34;5052426;28;20052;-53
2023/06/04 01:51:01;;;;;;;5.43;1.50;;;;;;;11.82;100.00;102032.63;5049863;28;20439;-51
2023/06/04 01:53:30;;;;;;;4.45;1.90;;;;;;;11.80;100.00;102031.88;5031861;28;20132;-53
2023/06/04 01:56:01;;;;;;;6.03;2.08;;;;;;;11.79;100.00;102031.03;5049580;28;20191;-51
2023/06/04 01:58:29;;;;;;;4.00;1.60;;;;;;;11.81;99.68;102036.22;5034325;28;20049;-51
2023/06/04 02:01:00;;;;;;;5.68;1.80;;;;;;;11.75;100.00;102023.34;5050593;28;20059;-57
2023/06/04 02:03:32;;;;;;;2.58;1.40;;;;;;;11.67;100.00;102040.41;5050597;28;20072;-48
2023/06/04 02:06:00;;;;;;;3.72;1.35;;;;;;;11.65;100.00;102041.41;5052888;28;20063;-51
2023/06/04 02:08:30;;;;;;;4.45;1.38;;;;;;;11.57;100.00;102031.25;5050527;28;20045;-50
2023/06/04 02:10:59;;;;;;;4.53;1.60;;;;;;;11.59;100.00;102036.44;5049154;28;20059;-52
2023/06/04 02:13:27;;;;;;;3.13;1.25;;;;;;;11.47;100.00;102037.94;5049166;28;21061;-52
2023/06/04 02:15:56;;;;;;;5.68;1.90;;;;;;;11.51;100.00;102034.22;5052090;28;20458;-51
2023/06/04 02:18:24;;;;;;;3.05;1.50;;;;;;;11.47;100.00;102038.78;5031644;28;20049;-49
2023/06/04 02:20:53;;;;;;;5.38;1.60;;;;;;;11.40;100.00;102034.75;5049245;28;20052;-50
2023/06/04 02:23:21;;;;;;;3.78;1.60;;;;;;;11.45;100.00;102039.78;5049473;28;20056;-52
2023/06/04 02:25:50;;;;;;;3.15;1.35;;;;;;;11.41;100.00;102038.22;5049549;28;20377;-51
2023/06/04 02:28:22;;;;;;;5.47;1.50;;;;;;;11.36;100.00;102034.97;5049028;28;20040;-53
2023/06/04 02:30:50;;;;;;;4.05;1.50;;;;;;;11.29;100.00;102040.56;5050023;28;20404;-52
2023/06/04 02:33:21;;;;;;;3.70;1.40;;;;;;;11.30;100.00;102029.09;5049631;28;20045;-50
2023/06/04 02:35:49;;;;;;;4.05;1.60;;;;;;;11.24;100.00;102032.00;5049465;28;20548;-48
2023/06/04 02:38:18;;;;;;;4.30;1.50;;;;;;;11.22;100.00;102028.63;5052021;28;20041;-48
2023/06/04 02:40:46;;;;;;;2.90;1.58;;;;;;;11.19;100.00;102031.38;5049353;28;20041;-49
2023/06/04 02:43:14;;;;;;;4.47;1.60;;;;;;;11.17;100.00;102033.25;5049433;28;20049;-50
2023/06/04 02:45:43;;;;;;;7.65;1.80;;;;;;;11.20;100.00;102035.72;5051548;28;20041;-52
2023/06/04 02:48:11;;;;;;;7.07;1.92;;;;;;;11.20;100.00;102038.34;5049694;28;20114;-48
2023/06/04 02:50:42;;;;;;;4.45;1.90;;;;;;;11.24;100.00;102032.00;5050808;28;20041;-48
2023/06/04 02:53:10;;;;;;;5.78;1.70;;;;;;;11.16;100.00;102044.72;5049311;28;20047;-51
2023/06/04 02:55:38;;;;;;;5.68;1.90;;;;;;;11.14;100.00;102039.50;5048166;28;20037;-49
2023/06/04 02:58:06;;;;;;;4.28;1.63;;;;;;;11.07;100.00;102038.13;5049004;28;20049;-54
2023/06/04 03:00:35;;;;;;;5.00;1.60;;;;;;;11.08;100.00;102037.16;5050993;28;20080;-48
2023/06/04 03:03:04;;;;;;;3.55;1.63;;;;;;;11.07;100.00;102039.88;5052337;28;20095;-51
2023/06/04 03:05:33;;;;;;;3.90;1.70;;;;;;;11.08;100.00;102041.59;5049307;28;20041;-53
2023/06/04 03:08:03;;;;;;;3.78;1.70;;;;;;;11.05;100.00;102037.31;5049781;28;20404;-51
2023/06/04 03:10:32;;;;;;;3.70;1.73;;;;;;;10.98;100.00;102033.28;5052415;28;20049;-48
2023/06/04 03:13:00;;;;;;;6.22;1.83;;;;;;;10.96;100.00;102032.50;5050607;28;20041;-50
2023/06/04 03:15:28;;;;;;;6.78;1.98;;;;;;;10.98;100.00;102026.22;5048919;28;20048;-51
2023/06/04 03:17:57;;;;;;;4.05;1.75;;;;;;;10.95;100.00;102029.03;5049175;28;20103;-51
2023/06/04 03:20:26;;;;;;;4.10;1.80;;;;;;;10.96;100.00;102036.00;5048389;28;20033;-51
2023/06/04 03:22:54;;;;;;;6.00;1.95;;;;;;;10.95;100.00;102033.44;5049503;28;20526;-47
2023/06/04 03:25:22;;;;;;;4.13;1.77;;;;;;;10.91;100.00;102035.34;5030938;28;20072;-49
2023/06/04 03:27:50;;;;;;;5.90;1.80;;;;;;;10.93;100.00;102033.50;5048122;28;20049;-48
2023/06/04 03:30:19;;;;;;;3.67;1.85;;;;;;;10.86;100.00;102044.41;5049115;28;20049;-47
2023/06/04 03:32:47;;;;;;;9.43;2.22;;;;;;;10.90;100.00;102038.91;5051750;28;20045;-49
2023/06/04 03:35:16;;;;;;;4.28;1.98;;;;;;;10.84;100.00;102033.94;5051938;28;20098;-49
2023/06/04 03:37:45;;;;;;;7.75;2.28;;;;;;;10.78;100.00;102034.22;5050503;28;20783;-48
2023/06/04 03:40:16;;;;;;;;;;;;;;;10.71;100.00;102035.44;5031103;28;20500;-52
2023/06/04 03:42:47;;;;;;;4.95;1.90;;;;;;;10.71;100.00;102030.19;5048115;28;19978;-51
2023/06/04 03:45:16;;;;;;;5.63;1.92;;;;;;;10.76;100.00;102030.84;5051599;28;20084;-50
2023/06/04 03:47:47;;;;;;;5.55;1.80;;;;;;;10.68;100.00;102033.81;5051912;28;20037;-51
2023/06/04 03:50:15;;;;;;;4.38;1.88;;;;;;;10.68;100.00;102038.22;5050028;28;20095;-52
2023/06/04 03:52:44;;;;;;;6.18;1.83;;;;;;;10.66;100.00;102038.28;5049223;28;20053;-51
2023/06/04 03:55:13;;;;;;;3.85;1.88;;;;;;;10.62;100.00;102040.22;5047930;28;20441;-50
2023/06/04 03:57:41;;;;;;;5.55;2.00;;;;;;;10.63;100.00;102041.06;5047908;28;20477;-50
2023/06/04 04:00:14;;;;;;;5.20;2.10;;;;;;;10.61;100.00;102046.41;5030539;28;20401;-51
2023/06/04 04:02:45;;;;;;;3.42;1.73;;;;;;;10.65;100.00;102045.31;5051089;28;20483;-51
2023/06/04 04:05:16;;;;;;;5.22;2.15;;;;;;;10.70;100.00;102044.25;5051498;28;20392;-48
2023/06/04 04:07:46;;;;;;;7.63;2.13;;;;;;;10.71;100.00;102044.19;5052543;28;20075;-48
2023/06/04 04:10:15;;;;;;;5.53;1.90;;;;;;;10.72;100.00;102050.31;5033746;28;20049;-47
2023/06/04 04:12:43;;;;;;;5.45;2.00;;;;;;;10.75;100.00;102050.16;5051230;28;20514;-50
2023/06/04 04:15:11;;;;;;;6.47;2.35;;;;;;;10.74;100.00;102051.94;5051859;28;20049;-52
2023/06/04 04:17:39;;;;;;;6.95;2.10;;;;;;;10.77;100.00;102058.81;5052216;28;20056;-50
2023/06/04 04:20:08;;;;;;;6.32;2.08;;;;;;;10.74;100.00;102057.19;5033472;28;20112;-51
2023/06/04 04:22:36;;;;;;;6.65;2.10;;;;;;;10.75;100.00;102055.44;5051519;28;20045;-51
2023/06/04 04:25:07;;;;;;;4.32;2.10;;;;;;;10.78;100.00;102061.41;5051809;28;20044;-50
2023/06/04 04:27:38;;;;;;;8.68;2.28;;;;;;;10.89;100.00;102055.63;5050934;28;20068;-49
2023/06/04 04:30:08;;;;;;;7.85;2.10;;;;;;;10.82;100.00;102059.47;5052267;28;20044;-50
2023/06/04 04:32:38;;;;;;;7.00;2.15;;;;;;;10.79;100.00;102057.00;5052003;28;20069;-50
2023/06/04 04:35:08;;;;;;;4.82;2.20;;;;;;;10.82;100.00;102059.47;5051488;28;20048;-51
2023/06/04 04:37:38;;;;;;;6.57;2.35;;;;;;;10.79;100.00;102060.47;5052405;28;20057;-51
2023/06/04 04:40:12;;;;;;;7.18;2.33;;;;;;;10.84;100.00;102057.63;5052362;28;20041;-50
2023/06/04 04:42:41;;;;;;;5.13;2.22;;;;;;;10.96;100.00;102053.56;5052685;28;20413;-49
2023/06/04 04:45:10;;;;;;;5.78;2.05;;;;;;;10.95;100.00;102052.72;5051631;28;20048;-51
2023/06/04 04:47:39;;;;;;;7.70;2.58;;;;;;;10.97;100.00;102053.47;5051400;28;20037;-53
2023/06/04 04:50:08;;;;;;;7.38;2.45;;;;;;;11.04;100.00;102061.94;5050872;28;20527;-49
2023/06/04 04:52:36;;;;;;;5.35;2.17;;;;;;;11.09;100.00;102062.56;5052066;28;20052;-50
2023/06/04 04:55:04;;;;;;;4.75;2.28;;;;;;;11.10;100.00;102058.19;5051378;28;20049;-53
2023/06/04 04:57:34;;;;;;;8.10;2.05;;;;;;;11.14;100.00;102065.00;5050463;28;20132;-49
2023/06/04 05:00:04;;;;;;;6.05;2.55;;;;;;;11.27;100.00;102046.81;5052064;28;20095;-50
2023/06/04 05:02:33;;;;;;;7.05;2.50;;;;;;;11.25;100.00;102052.16;5051216;28;20045;-53
2023/06/04 05:05:01;;;;;;;7.28;2.25;;;;;;;11.28;100.00;102049.38;5050832;28;20431;-52
2023/06/04 05:07:29;;;;;;;5.38;2.25;;;;;;;11.32;100.00;102048.28;5054014;28;20099;-51
2023/06/04 05:09:58;;;;;;;7.70;2.75;;;;;;;11.40;100.00;102045.28;5052370;28;20523;-50
2023/06/04 05:12:27;;;;;;;5.40;2.53;;;;;;;11.46;100.00;102058.13;5048938;28;20049;-52
2023/06/04 05:14:56;;;;;;;9.50;3.10;;;;;;;11.59;100.00;102053.13;5051168;28;20055;-52
2023/06/04 05:17:29;;;;;;;5.25;2.55;;;;;;;11.60;100.00;102054.84;5050260;28;20965;-48
2023/06/04 05:20:11;;;;;;;4.72;2.35;;;;;;;11.68;100.00;102057.06;5050299;28;20045;-49
2023/06/04 05:22:40;;;;;;;8.10;2.42;;;;;;;11.80;100.00;102052.97;5034723;28;20049;-53
2023/06/04 05:25:09;;;;;;;7.75;2.58;;;;;;;11.86;100.00;102059.69;5053821;28;20055;-52
2023/06/04 05:27:38;;;;;;;7.03;2.42;;;;;;;11.88;100.00;102047.31;5053553;28;20051;-53
2023/06/04 05:30:09;;;;;;;7.57;2.50;;;;;;;11.96;100.00;102050.44;5053675;28;20037;-50
2023/06/04 05:32:40;;;;;;;9.10;2.58;;;;;;;12.08;100.00;102046.28;5053745;28;20103;-50
2023/06/04 05:35:10;;;;;;;6.65;2.55;;;;;;;12.20;100.00;102042.16;5053870;28;20052;-51
2023/06/04 05:37:40;;;;;;;6.70;2.70;;;;;;;12.26;100.00;102042.69;5051133;28;20045;-51
2023/06/04 05:40:10;;;;;;;6.88;2.80;;;;;;;12.29;100.00;102042.50;5050469;28;20053;-49
2023/06/04 05:42:38;;;;;;;5.05;2.42;;;;;;;12.36;100.00;102047.47;5049694;28;20045;-51
2023/06/04 05:45:09;;;;;;;7.10;2.60;;;;;;;12.44;100.00;102045.28;5051322;28;20045;-50
2023/06/04 05:47:37;;;;;;;8.88;2.70;;;;;;;12.48;100.00;102047.66;5053715;28;20130;-49
2023/06/04 05:50:06;;;;;;;10.70;2.80;;;;;;;12.66;100.00;102040.50;5053442;28;20531;-49
2023/06/04 05:52:36;;;;;;;7.13;2.67;;;;;;;12.67;100.00;102047.50;5050183;28;20349;-48
2023/06/04 05:55:07;;;;;;;7.75;2.55;;;;;;;12.79;100.00;102047.78;5051054;28;20452;-51
2023/06/04 05:57:35;;;;;;;5.38;2.55;;;;;;;12.89;100.00;102051.59;5053441;28;20496;-51
2023/06/04 06:00:08;;;;;;;6.55;2.72;;;;;;;12.99;100.00;102046.66;5051355;28;20033;-46
2023/06/04 06:02:38;;;;;;;6.88;2.60;;;;;;;13.11;100.00;102055.69;5050358;28;20464;-48
2023/06/04 06:05:08;;;;;;;7.90;2.60;;;;;;;13.18;100.00;102052.63;5049507;28;20055;-50
2023/06/04 06:07:36;;;;;;;6.53;2.72;;;;;;;13.31;100.00;102052.75;5050379;28;20052;-47
2023/06/04 06:10:05;;;;;;;6.70;2.72;;;;;;;13.41;100.00;102055.72;5051059;28;20057;-50
2023/06/04 06:12:34;;;;;;;8.15;2.55;;;;;;;13.57;100.00;102054.88;5053008;28;20041;-49
2023/06/04 06:15:06;;;;;;;6.68;2.50;;;;;;;13.67;100.00;102061.28;5050057;28;20051;-48
2023/06/04 06:17:35;;;;;;;7.35;2.58;;;;;;;13.79;100.00;102060.56;5049873;28;20064;-50
2023/06/04 06:20:07;;;;;;;4.75;2.50;;;;;;;13.93;100.00;102062.38;5049432;28;20533;-52
2023/06/04 06:22:35;;;;;;;7.53;2.95;;;;;;;14.03;100.00;102062.69;5051361;28;20384;-50
2023/06/04 06:25:05;;;;;;;7.03;2.40;;;;;;;14.15;100.00;102061.09;5052027;28;20045;-47
2023/06/04 06:27:33;;;;;;;6.40;2.60;;;;;;;14.26;100.00;102069.22;5049123;28;20048;-51
2023/06/04 06:30:01;;;;;;;7.80;2.70;;;;;;;14.36;98.80;102067.69;5049855;28;20479;-51
2023/06/04 06:32:29;;;;;;;6.50;2.60;;;;;;;14.50;97.79;102068.66;5052847;28;20045;-50
2023/06/04 06:34:58;;;;;;;6.20;2.58;;;;;;;14.56;97.43;102078.00;5052633;28;20110;-52
2023/06/04 06:37:28;;;;;;;6.82;2.92;;;;;;;14.66;96.67;102073.88;5052779;28;20067;-53
2023/06/04 06:39:57;;;;;;;6.15;2.97;;;;;;;14.75;94.29;102067.13;5052596;28;20049;-49
2023/06/04 06:42:25;;;;;;;6.28;2.90;;;;;;;14.95;94.38;102077.28;5052466;28;20052;-52
2023/06/04 06:44:53;;;;;;;6.70;2.78;;;;;;;15.09;92.33;102075.56;5034802;28;20060;-53
2023/06/04 06:47:21;;;;;;;6.75;2.28;;;;;;;15.19;92.55;102074.03;5052684;28;20045;-53
2023/06/04 06:49:50;;;;;;;4.63;2.13;;;;;;;15.33;92.91;102075.75;5052555;28;20099;-53
2023/06/04 06:52:19;;;;;;;7.25;2.47;;;;;;;15.54;90.94;102068.16;5049759;28;20041;-54
2023/06/04 06:54:49;;;;;;;5.15;2.50;;;;;;;15.63;89.23;102074.69;5031239;28;20115;-54
2023/06/04 06:57:17;;;;;;;5.20;2.53;;;;;;;15.74;91.13;102071.31;5052461;28;20095;-54
2023/06/04 06:59:45;;;;;;;6.57;2.30;;;;;;;15.94;89.84;102075.25;5052695;28;20052;-53
2023/06/04 07:02:13;;;;;;;5.35;2.17;;;;;;;16.09;89.12;102074.22;5050447;28;20049;-51
2023/06/04 07:04:41;;;;;;;6.10;2.42;;;;;;;16.26;85.65;102083.66;5049132;28;20508;-52
2023/06/04 07:07:09;;;;;;;8.63;2.40;;;;;;;16.46;82.70;102084.09;5048718;28;20044;-52
2023/06/04 07:09:38;;;;;;;7.00;2.53;;;;;;;16.63;80.57;102078.41;5049312;28;20060;-52
2023/06/04 07:12:07;;;;;;;5.05;2.33;;;;;;;16.76;80.83;102080.19;5047370;28;20052;-50
2023/06/04 07:14:36;;;;;;;7.00;2.10;;;;;;;16.96;81.17;102081.44;5052336;28;20120;-52
2023/06/04 07:17:04;;;;;;;6.60;1.90;;;;;;;17.09;81.85;102092.88;5050999;28;20088;-50
2023/06/04 07:19:33;;;;;;;6.00;2.35;;;;;;;17.24;81.17;102083.75;5049031;28;20408;-52
2023/06/04 07:22:01;;;;;;;6.15;2.40;;;;;;;17.35;76.74;102082.94;5051482;28;20041;-52
2023/06/04 07:24:29;;;;;;;6.45;2.25;;;;;;;17.44;78.50;102084.09;5049077;28;20381;-50
2023/06/04 07:26:57;;;;;;;6.57;2.40;;;;;;;17.63;76.55;102085.34;5048461;28;20045;-52
2023/06/04 07:29:27;;;;;;;6.65;2.13;;;;;;;17.81;76.72;102083.97;5049018;28;20044;-51
2023/06/04 07:31:55;;;;;;;6.55;2.40;;;;;;;17.97;76.62;102086.34;5051168;28;20395;-52
2023/06/04 07:34:23;;;;;;;6.35;2.20;;;;;;;18.19;76.66;102093.50;5052195;28;20049;-52
2023/06/04 07:36:51;;;;;;;8.70;2.15;;;;;;;18.36;75.78;102091.31;5054085;28;20140;-51
2023/06/04 07:39:19;;;;;;;5.88;1.92;;;;;;;18.55;70.07;102096.88;5052002;28;20044;-52
2023/06/04 07:41:48;;;;;;;6.43;2.15;;;;;;;18.63;67.50;102090.13;5051390;28;20045;-49
2023/06/04 07:44:16;;;;;;;6.35;2.40;;;;;;;18.79;69.26;102095.03;5052203;28;20053;-47
2023/06/04 07:46:45;;;;;;;6.15;2.13;;;;;;;18.96;68.93;102091.88;5054877;28;20103;-52
2023/06/04 07:49:13;;;;;;;4.75;1.88;;;;;;;19.08;69.33;102085.56;5055391;28;20515;-52
2023/06/04 07:51:41;;;;;;;5.63;2.22;;;;;;;19.20;65.43;102093.53;5054546;28;20415;-52
2023/06/04 07:54:10;;;;;;;4.65;1.95;;;;;;;19.37;61.17;102101.00;5052062;28;20083;-50
2023/06/04 07:56:38;;;;;;;6.22;2.03;;;;;;;19.55;62.12;102097.75;5054267;28;20504;-51
2023/06/04 07:59:06;;;;;;;5.07;2.03;;;;;;;19.65;63.78;102095.16;5053609;28;20423;-51
2023/06/04 08:01:37;;;;;;;5.38;1.80;;;;;;;19.73;59.75;102080.19;5052434;28;20041;-51
2023/06/04 08:04:07;;;;;;;8.35;2.20;;;;;;;19.87;59.99;102088.88;5052741;28;20500;-51
2023/06/04 08:06:36;;;;;;;5.97;1.80;;;;;;;19.98;58.07;102094.13;5053298;28;20048;-53
2023/06/04 08:09:04;;;;;;;5.10;1.70;;;;;;;20.17;56.97;102092.56;5053613;28;20365;-52
2023/06/04 08:11:32;;;;;;;5.45;1.90;;;;;;;20.30;57.13;102093.19;5051116;28;20083;-48
2023/06/04 08:14:00;;;;;;;6.35;1.70;;;;;;;20.31;56.34;102097.53;5053351;28;20525;-53
2023/06/04 08:16:28;;;;;;;4.78;1.90;;;;;;;20.42;57.15;102092.13;5054787;28;20699;-55
2023/06/04 08:18:56;;;;;;;5.00;1.50;;;;;;;20.70;52.96;102094.22;5052276;28;20048;-54
2023/06/04 08:21:29;;;;;;;4.97;1.58;;;;;;;20.99;51.46;102093.44;5052915;28;20049;-56
2023/06/04 08:23:58;;;;;;;5.32;1.75;;;;;;;20.99;55.59;102091.59;5052442;28;20052;-50
2023/06/04 08:26:27;;;;;;;4.30;1.80;;;;;;;21.17;50.31;102090.91;5033301;28;20491;-49
2023/06/04 08:28:58;;;;;;;6.32;1.63;;;;;;;21.42;50.40;102087.69;5051915;28;20041;-51
2023/06/04 08:31:27;;;;;;;4.90;1.35;;;;;;;21.42;51.29;102090.34;5051609;28;20814;-52
2023/06/04 08:33:55;;;;;;;3.95;1.45;;;;;;;21.60;44.86;102092.34;5033905;28;20056;-54
2023/06/04 08:36:23;;;;;;;4.40;1.30;;;;;;;21.77;47.95;102093.44;5052671;28;20055;-54
2023/06/04 08:38:53;;;;;;;4.35;1.30;;;;;;;21.95;47.87;102086.38;5051520;28;20450;-54
2023/06/04 08:41:29;;;;;;;7.63;1.85;;;;;;;22.04;48.96;102090.00;5050462;28;20052;-53
2023/06/04 08:44:02;;;;;;;3.33;1.25;;;;;;;22.28;48.65;102104.75;5052276;28;20466;-53
2023/06/04 08:46:33;;;;;;;4.20;2.00;;;;;;;22.22;46.16;102098.13;5053218;28;20052;-56
2023/06/04 08:49:02;;;;;;;5.32;1.50;;;;;;;22.56;46.39;102094.06;5050655;28;20049;-53
2023/06/04 08:51:34;;;;;;;3.63;1.50;;;;;;;22.78;45.23;102096.34;5050866;28;20049;-54
2023/06/04 08:54:05;;;;;;;6.15;1.60;;;;;;;22.78;43.65;102106.22;5054755;28;20041;-51
2023/06/04 08:56:33;;;;;;;5.53;1.67;;;;;;;22.89;45.15;102097.97;5054561;28;20085;-54
2023/06/04 08:59:03;;;;;;;4.18;1.50;;;;;;;22.91;41.73;102109.38;5054504;28;20476;-56
2023/06/04 09:01:33;;;;;;;3.65;1.40;;;;;;;23.07;41.41;102113.22;5054622;28;20132;-52
2023/06/04 09:04:05;;;;;;;4.22;1.35;;;;;;;23.15;38.95;102110.69;5054312;28;20476;-54
2023/06/04 09:06:39;;;;;;;3.70;1.20;;;;;;;23.25;40.12;102115.97;5054227;28;20040;-55
2023/06/04 09:09:10;;;;;;;3.65;1.33;;;;;;;23.33;40.72;102101.75;5054252;28;20480;-54
2023/06/04 09:11:45;;;;;;;3.03;1.20;;;;;;;23.37;38.79;102108.50;5051565;28;20531;-55
2023/06/04 09:14:17;;;;;;;4.68;1.40;;;;;;;23.33;38.27;102110.69;5050780;28;20072;-52
2023/06/04 09:16:46;;;;;;;5.35;1.40;;;;;;;23.44;37.53;102105.06;5051358;28;20531;-52
2023/06/04 09:19:15;;;;;;;3.63;1.35;;;;;;;23.61;38.41;102113.25;5050802;28;20055;-53
2023/06/04 09:21:54;;;;;;;6.65;1.42;;;;;;;23.70;39.09;102103.44;5052420;28;20066;-53
2023/06/04 09:24:25;;;;;;;4.10;1.60;;;;;;;24.04;36.46;102100.84;5051658;28;20045;-53
2023/06/04 09:26:53;;;;;;;4.32;1.48;;;;;;;24.26;35.59;102102.13;5032610;28;20178;-52
2023/06/04 09:29:24;;;;;;;4.25;1.35;;;;;;;24.25;36.92;102099.59;5050946;28;20041;-49
2023/06/04 09:31:59;;;;;;;4.63;1.55;;;;;;;24.43;36.04;102099.50;5054116;28;20049;-52
2023/06/04 09:34:30;;;;;;;3.17;1.33;;;;;;;24.48;36.66;102099.88;5053704;28;20132;-51
2023/06/04 09:37:01;;;;;;;2.42;1.20;;;;;;;24.78;33.59;102106.56;5035756;28;20077;-53
2023/06/04 09:39:30;;;;;;;3.33;1.30;;;;;;;24.75;32.91;102108.75;5053200;28;20053;-52
2023/06/04 09:42:00;;;;;;;4.78;1.20;;;;;;;25.05;34.23;102111.84;5052960;28;20481;-54
2023/06/04 09:44:28;;;;;;;3.33;1.30;;;;;;;25.23;31.59;102109.00;5050283;28;20049;-52
2023/06/04 09:46:59;;;;;;;3.65;1.15;;;;;;;25.08;31.50;102100.75;5050911;28;20045;-54
2023/06/04 09:49:29;;;;;;;3.10;1.40;;;;;;;25.22;33.56;102100.09;5049278;28;20049;-49
2023/06/04 09:51:57;;;;;;;3.15;1.17;;;;;;;25.46;32.69;102101.16;5050401;28;20425;-51
2023/06/04 09:54:37;;;;;;;3.85;1.30;;;;;;;25.59;31.29;102106.00;5049753;28;20103;-51
2023/06/04 09:57:15;;;;;;;5.00;1.08;;;;;;;25.70;30.63;102103.00;5031185;28;20049;-53
2023/06/04 09:59:45;;;;;;;2.17;0.98;;;;;;;25.68;30.15;102096.94;5050361;28;20223;-52
2023/06/04 10:02:14;;;;;;;3.72;0.90;;;;;;;25.77;30.82;102098.59;5049813;28;20045;-52
2023/06/04 10:04:43;;;;;;;3.65;1.20;;;;;;;25.66;30.46;102101.66;5049476;28;20037;-54
2023/06/04 10:07:13;;;;;;;3.95;1.35;;;;;;;25.75;30.96;102103.31;5049741;28;20086;-53
2023/06/04 10:09:46;;;;;;;4.95;1.25;;;;;;;25.99;30.39;102107.00;5050088;28;20935;-55
2023/06/04 10:12:16;;;;;;;2.63;1.15;;;;;;;26.02;29.96;102101.28;5050859;28;20033;-54
2023/06/04 10:14:51;;;;;;;6.47;1.40;;;;;;;26.19;30.93;102104.78;5048965;28;20041;-55
2023/06/04 10:17:24;;;;;;;3.38;1.23;;;;;;;26.01;29.96;102098.72;5049335;28;20510;-54
2023/06/04 10:19:54;;;;;;;4.10;1.20;;;;;;;25.99;30.17;102096.22;5049524;28;20439;-54
2023/06/04 10:22:25;;;;;;;2.05;1.17;;;;;;;26.35;29.50;102098.47;5050850;28;20095;-53
2023/06/04 10:24:55;;;;;;;8.02;1.20;;;;;;;25.98;30.52;102103.44;5050281;28;20428;-52
2023/06/04 10:27:24;;;;;;;3.05;1.30;;;;;;;26.21;30.72;102104.59;5047837;28;20053;-53
2023/06/04 10:29:52;;;;;;;2.63;1.23;;;;;;;26.23;30.25;102094.47;5049782;28;20064;-54
2023/06/04 10:32:21;;;;;;;4.38;1.10;;;;;;;26.25;29.90;102100.56;5050106;28;20045;-53
2023/06/04 10:34:49;;;;;;;3.28;1.10;;;;;;;26.43;29.93;102098.44;5050513;28;20053;-54
2023/06/04 10:37:21;;;;;;;3.83;1.27;;;;;;;26.58;29.87;102092.31;5049070;28;20575;-54
2023/06/04 10:39:53;;;;;;;3.85;1.20;;;;;;;26.97;29.77;102089.59;5049388;28;20048;-53
2023/06/04 10:42:23;;;;;;;4.07;1.10;;;;;;;27.12;29.06;102088.81;5047920;28;20392;-53
2023/06/04 10:44:53;;;;;;;3.25;1.25;;;;;;;27.24;29.47;102097.31;5033566;28;20053;-53
2023/06/04 10:47:30;;;;;;;3.60;1.10;;;;;;;27.48;29.60;102099.84;5031290;28;20053;-53
2023/06/04 10:50:10;;;;;;;3.70;1.27;;;;;;;27.48;29.26;102094.44;5049152;28;20144;-54
2023/06/04 10:52:39;;;;;;;4.28;1.27;;;;;;;27.56;28.04;102095.41;5052137;28;20231;-53
2023/06/04 10:55:09;;;;;;;5.38;1.23;;;;;;;27.59;28.09;102090.47;5052425;28;20033;-54
2023/06/04 10:57:38;;;;;;;3.33;1.00;;;;;;;27.47;28.29;102079.28;5052905;28;20033;-54
2023/06/04 11:00:10;;;;;;;2.90;1.00;;;;;;;27.85;29.05;102082.97;5071887;28;20526;-56
2023/06/04 11:02:49;;;;;;;3.55;1.15;;;;;;;28.01;28.45;102076.59;5069797;28;20114;-54
2023/06/04 11:05:18;;;;;;;3.03;1.17;;;;;;;27.59;27.18;102086.94;5074726;28;20055;-52
2023/06/04 11:07:48;;;;;;;2.83;1.02;;;;;;;27.89;28.46;102086.97;5072731;28;20041;-52
2023/06/04 11:10:18;;;;;;;2.80;1.20;;;;;;;27.97;27.79;102087.72;5075332;28;20040;-56
2023/06/04 11:12:50;;;;;;;3.55;1.35;;;;;;;27.42;28.14;102084.38;5092748;28;20048;-56
2023/06/04 11:15:18;;;;;;;2.08;1.10;;;;;;;27.66;27.62;102077.91;5074555;28;20189;-57
2023/06/04 11:17:51;;;;;;;2.80;1.00;;;;;;;27.86;27.12;102081.94;5093632;28;20116;-56
2023/06/04 11:20:20;;;;;;;2.67;1.10;;;;;;;27.96;26.98;102082.50;5093004;28;20063;-57
2023/06/04 11:22:55;;;;;;;3.47;1.30;;;;;;;28.11;26.51;102072.53;5093409;28;20044;-57
2023/06/04 11:25:25;;;;;;;4.07;1.13;;;;;;;27.86;26.37;102074.66;5092947;28;20058;-56
2023/06/04 11:27:56;;;;;;;2.38;1.00;;;;;;;28.11;26.57;102069.84;5095417;28;20048;-57
2023/06/04 11:30:25;;;;;;;5.13;1.27;;;;;;;28.33;25.67;102068.06;5077308;28;20399;-58
2023/06/04 11:33:01;;;;;;;5.50;1.10;;;;;;;28.62;25.78;102070.91;5093441;28;20074;-56